Elk City, OK

7:33 PM CDT on September 24, 2016 (GMT -0500)
Clinton-Sherman | | Change Station
Active Advisory: Flood Warning Active Notice: Local Storm Report

Elev 1923 ft 35.34 °N, 99.20 °W | Updated 40 minutes ago

Scattered Clouds
Scattered Clouds
68 °F
Feels Like 68 °F
N
6
Wind Variable Wind from East

Today
High -- | Low -- °F
--% Chance of Precip.
Yesterday
High -- | Low -- °F
Precip. -- in
Pressure 29.91 in
Visibility 10.0 miles
Clouds Few 4100 ft
Scattered Clouds 5000 ft
Dew Point 64 °F
Humidity 87%
Rainfall 1.00 in
Snow Depth Not available.
7:27 AM 7:30 PM
Waning Crescent, 33% visible
METAR KCSM 242353Z AUTO 10005KT 10SM FEW041 SCT050 20/18 A2996 RMK AO2 LTG DSNT NE-SE RAE38 TSE11 SLP126 P0004 60098 T02000178 10300 20200 51022
Pressure 29.91 in
Visibility 10.0 miles
Clouds Few 4100 ft
Scattered Clouds 5000 ft
Dew Point 64 °F
Humidity 87%
Rainfall 1.00 in
Snow Depth Not available.
7:27 AM 7:30 PM
Waning Crescent, 33% visible
METAR KCSM 242353Z AUTO 10005KT 10SM FEW041 SCT050 20/18 A2996 RMK AO2 LTG DSNT NE-SE RAE38 TSE11 SLP126 P0004 60098 T02000178 10300 20200 51022

10-Day Weather Forecast

Almanac

Astronomy

Sep. 24, 2016 Rise Set
Actual Time
Civil Twilight
Nautical Twilight
Astronomical Twilight
Moon
Length of Visible Light
Length of Day
Tomorrow will be .
, % of the Moon is Illuminated

Today's Extremes

State Highs State Lows

Community

WunderPhotos

Upload Photos

1,941,501 photos uploaded!

WunderBlog® & News

Nearby

Air Quality

  Air Quality AQ Index Pollutant
Not available.

Snow Depth

Station Depth Elevation

Earthquake Activity

City Distance Mag. Time & Date
Minimum magnitude displayed is 2.5.

Coastal Water Temperatures

Place Temperature

Stations

Nearby Weather Stations

Station Location Temp. Windchill Dew Point Humidity Wind Precip. Elev Updated Type
                   

Watches & Warnings

Flood Warning
Issued: 7:28 PM CDT Sep. 24, 2016 – National Weather Service

... The Flash Flood Warning for southeastern Roger Mills...
southwestern Custer... northwestern Washita and eastern Beckham
counties will expire at 730 PM CDT...

The heavy rain has ended. Flooding is no longer expected to pose a
threat. Please continue to heed any remaining Road closures.

Lat... Lon 3553 9950 3554 9927 3512 9942 3512 9962


Kurtz